createdAt,value
2019-03-13T00:00:25.080Z,2.79
2019-03-13T00:02:54.920Z,2.78
2019-03-13T00:05:24.571Z,2.98
2019-03-13T00:07:54.126Z,2.91
2019-03-13T00:10:23.627Z,2.66
2019-03-13T00:12:53.783Z,2.74
2019-03-13T00:15:23.296Z,2.57
2019-03-13T00:17:52.876Z,2.85
2019-03-13T00:20:22.361Z,2.84
2019-03-13T00:22:51.927Z,2.58
2019-03-13T00:25:21.975Z,2.52
2019-03-13T00:28:10.815Z,2.42
2019-03-13T00:30:40.332Z,2.39
2019-03-13T00:33:09.828Z,2.80
2019-03-13T00:35:39.353Z,2.62
2019-03-13T00:38:08.885Z,2.67
2019-03-13T00:40:39.477Z,2.74
2019-03-13T00:43:09.007Z,2.49
2019-03-13T00:45:38.515Z,2.19
2019-03-13T00:48:07.998Z,2.07
2019-03-13T00:50:37.509Z,1.88
2019-03-13T00:53:07.023Z,1.63
2019-03-13T00:55:36.500Z,1.78
2019-03-13T00:58:06.053Z,1.69
2019-03-13T01:00:41.175Z,2.17
2019-03-13T01:03:28.289Z,1.69
2019-03-13T01:06:00.270Z,1.58
2019-03-13T01:08:29.772Z,1.48
2019-03-13T01:10:59.258Z,1.42
2019-03-13T01:13:28.798Z,1.38
2019-03-13T01:16:17.639Z,1.46
2019-03-13T01:18:59.738Z,1.36
2019-03-13T01:21:29.601Z,1.73
2019-03-13T01:23:59.124Z,1.79
2019-03-13T01:26:28.615Z,1.99
2019-03-13T01:28:58.132Z,1.83
2019-03-13T01:31:41.755Z,2.00
2019-03-13T01:34:22.537Z,1.86
2019-03-13T01:36:52.053Z,2.10
2019-03-13T01:39:21.544Z,1.94
2019-03-13T01:41:51.114Z,2.17
2019-03-13T01:44:21.492Z,2.13
2019-03-13T01:46:51.075Z,2.42
2019-03-13T01:49:20.595Z,2.51
2019-03-13T01:51:50.109Z,3.88
2019-03-13T01:54:19.583Z,5.65
2019-03-13T01:56:49.651Z,6.97
2019-03-13T01:59:19.178Z,7.75
2019-03-13T02:01:48.664Z,7.98
2019-03-13T02:04:18.247Z,8.34
2019-03-13T02:06:47.820Z,8.41
2019-03-13T02:09:17.348Z,8.55
2019-03-13T02:11:46.852Z,8.56
2019-03-13T02:14:16.448Z,8.37
2019-03-13T02:16:45.926Z,8.48
2019-03-13T02:19:15.491Z,8.40
2019-03-13T02:21:45.829Z,8.43
2019-03-13T02:24:15.342Z,8.30
2019-03-13T02:26:44.829Z,8.22
2019-03-13T02:29:14.338Z,8.25
2019-03-13T02:31:43.825Z,8.23
2019-03-13T02:34:14.001Z,8.21
2019-03-13T02:36:43.507Z,8.21
2019-03-13T02:39:13.012Z,8.05
2019-03-13T02:41:45.156Z,8.03
2019-03-13T02:44:14.663Z,8.09
2019-03-13T02:46:44.169Z,8.01
2019-03-13T02:49:13.681Z,8.00
2019-03-13T02:51:43.190Z,7.99
2019-03-13T02:54:12.683Z,7.82
2019-03-13T02:56:42.188Z,7.70
2019-03-13T02:59:12.332Z,7.55
2019-03-13T03:01:45.913Z,7.60
2019-03-13T03:04:15.418Z,7.54
2019-03-13T03:06:44.909Z,7.61
2019-03-13T03:09:14.411Z,7.56
2019-03-13T03:11:43.898Z,7.52
2019-03-13T03:14:13.436Z,7.37
2019-03-13T03:16:43.052Z,7.26
2019-03-13T03:19:12.557Z,7.08
2019-03-13T03:21:42.043Z,6.96
2019-03-13T03:24:11.544Z,6.81
2019-03-13T03:26:42.295Z,6.66
2019-03-13T03:29:11.796Z,6.63
2019-03-13T03:31:41.565Z,6.25
2019-03-13T03:34:11.080Z,5.89
2019-03-13T03:36:40.600Z,5.56
2019-03-13T03:39:10.887Z,5.41
2019-03-13T03:41:40.407Z,5.24
2019-03-13T03:44:09.997Z,5.13
2019-03-13T03:46:39.484Z,5.15
2019-03-13T03:49:09.003Z,4.88
2019-03-13T03:51:39.168Z,4.80
2019-03-13T03:54:08.677Z,4.78
2019-03-13T03:56:38.172Z,4.61
2019-03-13T03:59:07.689Z,4.52
2019-03-13T04:01:37.180Z,4.42
2019-03-13T04:04:07.385Z,4.43
2019-03-13T04:06:36.868Z,4.37
2019-03-13T04:09:07.444Z,4.38
2019-03-13T04:11:36.935Z,4.37
2019-03-13T04:14:06.425Z,4.33
2019-03-13T04:16:35.976Z,4.39
2019-03-13T04:19:05.572Z,4.17
2019-03-13T04:21:35.069Z,4.15
2019-03-13T04:24:04.633Z,4.20
2019-03-13T04:26:34.109Z,4.17
2019-03-13T04:29:04.808Z,4.25
2019-03-13T04:31:34.283Z,4.10
2019-03-13T04:34:03.788Z,4.09
2019-03-13T04:36:33.269Z,4.14
2019-03-13T04:39:02.763Z,4.17
2019-03-13T04:41:52.412Z,3.99
2019-03-13T04:44:21.935Z,3.87
2019-03-13T04:46:51.441Z,3.84
2019-03-13T04:49:21.763Z,3.90
2019-03-13T04:51:51.278Z,3.79
2019-03-13T04:54:20.775Z,3.83
2019-03-13T04:56:50.267Z,3.78
2019-03-13T04:59:19.774Z,3.68
2019-03-13T05:01:49.942Z,3.76
2019-03-13T05:04:19.484Z,3.67
2019-03-13T05:06:48.975Z,3.74
2019-03-13T05:09:18.561Z,3.64
2019-03-13T05:11:48.059Z,3.52
2019-03-13T05:14:18.243Z,3.57
2019-03-13T05:16:47.723Z,3.56
2019-03-13T05:19:17.226Z,3.39
2019-03-13T05:21:46.732Z,3.39
2019-03-13T05:24:16.239Z,3.57
2019-03-13T05:26:46.494Z,3.50
2019-03-13T05:29:16.006Z,3.44
2019-03-13T05:31:45.512Z,3.46
2019-03-13T05:34:15.040Z,3.45
2019-03-13T05:36:45.427Z,3.45
2019-03-13T05:39:14.897Z,3.34
2019-03-13T05:41:45.936Z,3.30
2019-03-13T05:44:15.494Z,3.22
2019-03-13T05:46:45.529Z,3.27
2019-03-13T05:49:15.017Z,3.15
2019-03-13T05:51:44.518Z,3.22
2019-03-13T05:54:14.047Z,3.27
2019-03-13T05:56:43.549Z,3.26
2019-03-13T05:59:13.057Z,3.30
2019-03-13T06:01:42.594Z,3.46
2019-03-13T06:04:12.100Z,3.56
2019-03-13T06:06:41.631Z,3.70
2019-03-13T06:09:11.154Z,3.54
2019-03-13T06:11:40.675Z,3.63
2019-03-13T06:14:10.170Z,3.54
2019-03-13T06:16:39.675Z,3.77
2019-03-13T06:19:09.203Z,3.62
2019-03-13T06:21:38.717Z,3.61
2019-03-13T06:24:08.203Z,3.56
2019-03-13T06:26:37.714Z,3.45
2019-03-13T06:29:07.227Z,3.53
2019-03-13T06:31:36.749Z,3.54
2019-03-13T06:34:06.265Z,3.63
2019-03-13T06:36:35.803Z,3.68
2019-03-13T06:39:07.621Z,3.70
2019-03-13T06:41:37.146Z,3.87
2019-03-13T06:44:06.654Z,4.02
2019-03-13T06:46:36.160Z,4.12
2019-03-13T06:49:06.455Z,3.96
2019-03-13T06:51:36.027Z,3.90
2019-03-13T06:54:05.615Z,3.80
2019-03-13T06:56:35.599Z,3.86
2019-03-13T06:59:18.832Z,3.94
2019-03-13T07:01:55.968Z,4.02
2019-03-13T07:04:27.102Z,4.02
2019-03-13T07:07:05.199Z,4.17
2019-03-13T07:09:42.142Z,4.10
2019-03-13T07:12:11.413Z,4.23
2019-03-13T07:14:45.223Z,4.28
2019-03-13T07:17:53.132Z,4.42
2019-03-13T07:26:32.234Z,4.32
2019-03-13T07:29:12.613Z,4.46
2019-03-13T07:31:47.609Z,4.46
2019-03-13T07:34:18.727Z,4.36
2019-03-13T07:37:05.013Z,4.58
2019-03-13T07:39:47.747Z,4.67
2019-03-13T07:42:34.866Z,4.45
2019-03-13T07:51:02.260Z,4.78
2019-03-13T07:56:30.941Z,5.19
2019-03-13T07:59:20.182Z,6.51
2019-03-13T08:02:28.060Z,6.49
2019-03-13T08:05:14.214Z,6.51
2019-03-13T08:07:45.352Z,6.69
2019-03-13T08:10:16.536Z,7.26
2019-03-13T08:13:05.726Z,6.98
2019-03-13T08:15:51.704Z,6.85
2019-03-13T08:18:38.939Z,6.74
2019-03-13T08:21:19.086Z,8.08
2019-03-13T08:23:52.638Z,8.72
2019-03-13T08:26:29.279Z,9.04
2019-03-13T08:29:06.128Z,10.80
2019-03-13T08:31:52.100Z,11.94
2019-03-13T08:34:25.838Z,12.61
2019-03-13T08:37:00.838Z,13.36
2019-03-13T08:39:31.985Z,13.23
2019-03-13T08:42:11.855Z,10.13
2019-03-13T08:44:43.008Z,12.19
2019-03-13T08:47:29.973Z,12.23
2019-03-13T08:50:09.551Z,12.57
2019-03-13T08:52:40.707Z,13.77
2019-03-13T08:55:25.252Z,15.15
2019-03-13T08:57:59.039Z,15.20
2019-03-13T09:00:33.022Z,16.06
2019-03-13T09:03:04.172Z,11.40
2019-03-13T09:05:33.435Z,9.79
2019-03-13T09:08:20.603Z,9.38
2019-03-13T09:10:58.381Z,9.40
2019-03-13T09:13:29.567Z,8.55
2019-03-13T09:16:00.810Z,8.61
2019-03-13T09:18:34.845Z,8.24
2019-03-13T09:21:06.053Z,9.03
2019-03-13T09:23:39.637Z,10.60
2019-03-13T09:26:13.706Z,9.28
2019-03-13T09:28:50.621Z,8.51
2019-03-13T09:31:25.275Z,9.52
2019-03-13T09:33:57.702Z,10.46
2019-03-13T09:36:32.762Z,11.08
2019-03-13T09:39:10.851Z,9.57
2019-03-13T09:41:41.984Z,10.27
2019-03-13T09:44:22.185Z,10.16
2019-03-13T09:46:56.146Z,10.52
2019-03-13T09:49:29.731Z,11.27
2019-03-13T09:52:00.845Z,9.95
2019-03-13T09:54:32.206Z,10.03
2019-03-13T09:57:19.154Z,11.49
2019-03-13T09:59:50.327Z,9.92
2019-03-13T10:02:36.545Z,11.38
2019-03-13T10:05:44.424Z,9.05
2019-03-13T10:08:13.704Z,7.68
2019-03-13T10:10:44.851Z,10.44
2019-03-13T10:13:19.047Z,9.76
2019-03-13T10:16:05.028Z,8.04
2019-03-13T10:18:42.016Z,8.51
2019-03-13T10:21:13.176Z,8.71
2019-03-13T10:23:50.001Z,9.15
2019-03-13T10:26:26.849Z,9.85
2019-03-13T10:28:56.189Z,11.44
2019-03-13T10:31:27.311Z,10.24
2019-03-13T10:34:01.460Z,9.45
2019-03-13T10:37:09.342Z,12.36
2019-03-13T10:39:43.208Z,12.06
2019-03-13T10:42:26.149Z,11.82
2019-03-13T10:45:09.148Z,9.53
2019-03-13T10:47:42.790Z,8.20
2019-03-13T10:50:18.627Z,8.77
2019-03-13T10:52:58.267Z,9.68
2019-03-13T10:55:29.439Z,8.25
2019-03-13T10:58:16.731Z,8.87
2019-03-13T11:07:39.825Z,11.52
2019-03-13T11:10:26.078Z,12.76
2019-03-13T11:13:15.371Z,11.73
2019-03-13T11:16:02.662Z,11.68
2019-03-13T11:18:36.897Z,10.95
2019-03-13T11:21:15.101Z,11.14
2019-03-13T11:23:49.195Z,12.06
2019-03-13T11:26:25.872Z,9.47
2019-03-13T11:28:57.071Z,9.18
2019-03-13T11:31:43.768Z,7.86
2019-03-13T11:34:38.359Z,7.37
2019-03-13T11:37:46.205Z,6.90
2019-03-13T11:40:32.493Z,5.67
2019-03-13T11:43:03.921Z,5.49
2019-03-13T11:45:35.067Z,5.81
2019-03-13T11:48:06.348Z,6.85
2019-03-13T11:50:37.646Z,9.39
2019-03-13T11:53:26.712Z,11.03
2019-03-13T11:56:04.821Z,11.97
2019-03-13T11:58:52.522Z,13.17
2019-03-13T12:01:44.938Z,14.00
2019-03-13T12:04:21.355Z,13.09
2019-03-13T12:06:58.232Z,12.00
2019-03-13T12:09:29.635Z,12.67
2019-03-13T12:12:15.688Z,13.45
2019-03-13T12:14:49.355Z,12.78
2019-03-13T12:17:26.048Z,12.12
2019-03-13T12:19:59.813Z,12.25
2019-03-13T12:22:46.869Z,12.40
2019-03-13T12:25:23.752Z,11.36
2019-03-13T12:27:55.983Z,12.43
2019-03-13T12:30:33.147Z,12.39
2019-03-13T12:33:22.153Z,9.51
2019-03-13T12:35:56.133Z,8.41
2019-03-13T12:38:25.385Z,9.47
2019-03-13T12:41:02.639Z,9.51
2019-03-13T12:43:36.429Z,11.24
2019-03-13T12:46:05.833Z,10.87
2019-03-13T12:48:36.980Z,10.83
2019-03-13T12:51:08.203Z,10.52
2019-03-13T12:53:39.342Z,9.31
2019-03-13T12:56:16.561Z,9.76
2019-03-13T12:59:02.778Z,10.43
2019-03-13T13:01:36.873Z,11.24
2019-03-13T13:04:08.089Z,9.74
2019-03-13T13:06:44.924Z,9.11
2019-03-13T13:09:16.043Z,8.50
2019-03-13T13:11:45.311Z,9.53
2019-03-13T13:14:32.284Z,11.88
2019-03-13T13:17:09.209Z,11.42
2019-03-13T13:19:38.710Z,10.33
2019-03-13T13:22:08.292Z,11.11
2019-03-13T13:24:37.783Z,13.18
2019-03-13T13:27:07.435Z,12.55
2019-03-13T13:29:36.928Z,12.23
2019-03-13T13:32:06.481Z,12.83
2019-03-13T13:34:36.012Z,11.21
2019-03-13T13:37:05.524Z,11.74
2019-03-13T13:39:35.034Z,12.24
2019-03-13T13:42:04.740Z,10.88
2019-03-13T13:44:34.223Z,10.47
2019-03-13T13:47:03.739Z,10.12
2019-03-13T13:49:34.455Z,9.37
2019-03-13T13:52:04.049Z,8.23
2019-03-13T13:54:33.528Z,7.61
2019-03-13T13:57:03.034Z,7.15
2019-03-13T13:59:32.514Z,5.29
2019-03-13T14:02:02.018Z,4.38
2019-03-13T14:04:31.506Z,4.62
2019-03-13T14:07:01.017Z,5.39
2019-03-13T14:09:30.524Z,5.91
2019-03-13T14:12:00.030Z,5.51
2019-03-13T14:14:29.518Z,5.54
2019-03-13T14:16:59.024Z,5.57
2019-03-13T14:19:28.513Z,5.62
2019-03-13T14:21:58.016Z,6.05
2019-03-13T14:24:27.503Z,6.36
2019-03-13T14:26:58.082Z,5.71
2019-03-13T14:29:27.570Z,4.81
2019-03-13T14:31:57.158Z,4.85
2019-03-13T14:34:26.639Z,4.91
2019-03-13T14:36:56.146Z,4.76
2019-03-13T14:39:26.176Z,4.50
2019-03-13T14:41:55.683Z,4.53
2019-03-13T14:44:25.170Z,4.53
2019-03-13T14:46:54.691Z,4.56
2019-03-13T14:49:24.212Z,4.56
2019-03-13T14:51:54.253Z,4.76
2019-03-13T14:54:23.722Z,4.99
2019-03-13T14:56:53.210Z,5.07
2019-03-13T14:59:22.703Z,4.79
2019-03-13T15:01:52.262Z,4.54
2019-03-13T15:04:21.771Z,4.71
2019-03-13T15:06:51.261Z,4.86
2019-03-13T15:09:20.777Z,4.81
2019-03-13T15:11:50.267Z,4.95
2019-03-13T15:14:19.780Z,4.76
2019-03-13T15:16:53.196Z,4.92
2019-03-13T15:19:21.750Z,4.87
2019-03-13T15:21:51.248Z,4.98
2019-03-13T15:24:20.761Z,4.92
2019-03-13T15:26:50.247Z,4.84
2019-03-13T15:29:19.761Z,5.05
2019-03-13T15:31:49.244Z,5.37
2019-03-13T15:34:18.771Z,5.65
2019-03-13T15:36:48.281Z,6.09
2019-03-13T15:39:17.974Z,5.93
2019-03-13T15:41:47.454Z,5.82
2019-03-13T15:44:16.943Z,5.90
2019-03-13T15:46:46.443Z,6.03
2019-03-13T15:49:16.021Z,5.96
2019-03-13T15:51:45.506Z,5.88
2019-03-13T15:54:16.239Z,5.89
2019-03-13T15:56:45.714Z,5.85
2019-03-13T15:59:15.236Z,5.91
2019-03-13T16:01:44.698Z,5.87
2019-03-13T16:04:14.199Z,5.82
2019-03-13T16:06:44.765Z,5.76
2019-03-13T16:09:14.283Z,5.72
2019-03-13T16:11:43.752Z,5.64
2019-03-13T16:14:13.249Z,5.65
2019-03-13T16:17:02.073Z,5.64
2019-03-13T16:19:31.614Z,5.56
2019-03-13T16:22:01.428Z,5.39
2019-03-13T16:24:31.096Z,5.28
2019-03-13T16:27:01.719Z,5.18
2019-03-13T16:29:31.253Z,5.18
2019-03-13T16:32:00.765Z,5.11
2019-03-13T16:34:30.258Z,5.08
2019-03-13T16:36:59.775Z,5.16
2019-03-13T16:39:29.395Z,5.32
2019-03-13T16:41:58.861Z,5.31
2019-03-13T16:44:28.338Z,5.39
2019-03-13T16:46:58.870Z,5.26
2019-03-13T16:49:47.736Z,5.25
2019-03-13T16:52:17.226Z,4.55
2019-03-13T16:54:46.703Z,5.22
2019-03-13T16:57:16.240Z,5.24
2019-03-13T16:59:45.829Z,5.24
2019-03-13T17:02:15.336Z,5.13
2019-03-13T17:04:44.835Z,5.03
2019-03-13T17:07:14.328Z,4.84
2019-03-13T17:09:43.835Z,4.83
2019-03-13T17:12:14.049Z,4.78
2019-03-13T17:14:43.588Z,4.69
2019-03-13T17:17:13.061Z,4.63
2019-03-13T17:19:42.555Z,4.49
2019-03-13T17:22:12.066Z,4.37
2019-03-13T17:25:20.563Z,4.15
2019-03-13T17:27:50.521Z,3.42
2019-03-13T17:30:23.422Z,3.95
2019-03-13T17:32:52.970Z,3.83
2019-03-13T17:35:22.583Z,3.79
2019-03-13T17:37:52.438Z,3.74
2019-03-13T17:40:31.734Z,3.75
2019-03-13T17:43:01.224Z,3.68
2019-03-13T17:45:31.105Z,3.61
2019-03-13T17:48:00.597Z,3.53
2019-03-13T17:50:30.082Z,3.47
2019-03-13T17:52:59.987Z,3.47
2019-03-13T17:55:29.545Z,3.27
2019-03-13T17:57:59.259Z,3.26
2019-03-13T18:00:38.812Z,3.18
2019-03-13T18:03:08.310Z,3.21
2019-03-13T18:05:37.824Z,3.18
2019-03-13T18:08:07.310Z,3.16
2019-03-13T18:10:36.814Z,3.09
2019-03-13T18:13:06.327Z,3.06
2019-03-13T18:15:35.829Z,3.06
2019-03-13T18:18:05.596Z,2.97
2019-03-13T18:20:35.125Z,2.97
2019-03-13T18:23:04.810Z,2.97
2019-03-13T18:25:34.325Z,2.85
2019-03-13T18:28:05.051Z,2.72
2019-03-13T18:30:35.854Z,2.67
2019-03-13T18:33:05.571Z,2.69
2019-03-13T18:35:35.343Z,2.65
2019-03-13T18:38:04.995Z,2.67
2019-03-13T18:40:34.579Z,2.58
2019-03-13T18:43:04.130Z,2.61
2019-03-13T18:45:35.536Z,2.52
2019-03-13T18:48:05.260Z,2.58
2019-03-13T18:50:34.786Z,2.55
2019-03-13T18:53:04.275Z,2.60
2019-03-13T18:55:37.352Z,2.61
2019-03-13T18:58:06.941Z,2.79
2019-03-13T19:00:37.543Z,2.74
2019-03-13T19:03:10.608Z,2.77
2019-03-13T19:05:40.301Z,2.86
2019-03-13T19:08:09.955Z,2.78
2019-03-13T19:10:39.530Z,2.83
2019-03-13T19:13:09.496Z,2.88
2019-03-13T19:15:40.280Z,2.91
2019-03-13T19:18:10.244Z,3.07
2019-03-13T19:20:39.763Z,3.10
2019-03-13T19:23:09.245Z,3.17
2019-03-13T19:25:38.760Z,3.13
2019-03-13T19:28:08.341Z,3.09
2019-03-13T19:30:38.284Z,3.03
2019-03-13T19:33:07.909Z,3.00
2019-03-13T19:35:37.649Z,2.96
2019-03-13T19:38:12.877Z,3.00
2019-03-13T19:40:42.459Z,2.92
2019-03-13T19:43:11.966Z,2.99
2019-03-13T19:45:45.945Z,3.03
2019-03-13T19:48:15.762Z,2.97
2019-03-13T19:50:45.276Z,2.96
2019-03-13T19:53:14.774Z,2.93
2019-03-13T19:55:44.298Z,3.02
2019-03-13T19:58:13.797Z,3.18
2019-03-13T20:00:43.375Z,3.36
2019-03-13T20:03:17.872Z,3.37
2019-03-13T20:05:47.478Z,3.52
2019-03-13T20:08:16.989Z,3.51
2019-03-13T20:10:46.503Z,3.62
2019-03-13T20:13:15.992Z,3.55
2019-03-13T20:15:45.514Z,3.51
2019-03-13T20:18:15.026Z,3.60
2019-03-13T20:20:44.621Z,3.55
2019-03-13T20:23:16.706Z,3.53
2019-03-13T20:25:46.185Z,3.53
2019-03-13T20:28:15.697Z,3.58
2019-03-13T20:30:45.286Z,3.69
2019-03-13T20:33:14.771Z,3.75
2019-03-13T20:35:44.256Z,3.82
2019-03-13T20:38:13.769Z,3.92
2019-03-13T20:40:43.350Z,3.95
2019-03-13T20:43:13.105Z,4.05
2019-03-13T20:45:42.723Z,4.06
2019-03-13T20:48:12.250Z,4.15
2019-03-13T20:50:41.907Z,4.15
2019-03-13T20:53:11.582Z,4.21
2019-03-13T20:55:41.088Z,4.19
2019-03-13T20:58:10.604Z,4.18
2019-03-13T21:03:53.691Z,3.30
2019-03-13T21:06:23.253Z,4.26
2019-03-13T21:08:54.371Z,4.30
2019-03-13T21:11:24.267Z,4.35
2019-03-13T21:13:53.763Z,4.37
2019-03-13T21:16:23.303Z,4.42
2019-03-13T21:18:52.790Z,4.39
2019-03-13T21:21:22.306Z,4.46
2019-03-13T21:23:51.806Z,4.46
2019-03-13T21:26:21.350Z,4.36
2019-03-13T21:28:50.835Z,4.50
2019-03-13T21:31:20.487Z,4.46
2019-03-13T21:34:09.470Z,4.41
2019-03-13T21:36:39.991Z,4.31
2019-03-13T21:39:09.656Z,4.07
2019-03-13T21:41:39.145Z,3.95
2019-03-13T21:44:08.685Z,3.89
2019-03-13T21:46:38.188Z,3.87
2019-03-13T21:49:08.729Z,3.86
2019-03-13T21:51:38.297Z,3.89
2019-03-13T21:54:07.840Z,3.85
2019-03-13T21:56:37.343Z,3.78
2019-03-13T21:59:06.827Z,3.68
2019-03-13T22:01:37.391Z,3.66
2019-03-13T22:04:07.991Z,3.69
2019-03-13T22:06:37.566Z,3.62
2019-03-13T22:09:07.606Z,3.49
2019-03-13T22:11:37.104Z,3.03
2019-03-13T22:14:06.632Z,2.75
2019-03-13T22:16:36.195Z,2.56
2019-03-13T22:19:05.693Z,2.30
2019-03-13T22:21:35.221Z,2.18
2019-03-13T22:24:04.712Z,2.20
2019-03-13T22:26:34.269Z,2.13
2019-03-13T22:29:03.810Z,2.14
2019-03-13T22:31:33.359Z,2.19
2019-03-13T22:34:02.881Z,2.17
2019-03-13T22:36:32.411Z,2.10
2019-03-13T22:39:01.896Z,2.13
2019-03-13T22:41:31.412Z,2.16
2019-03-13T22:44:00.912Z,2.24
2019-03-13T22:46:30.398Z,2.31
2019-03-13T22:48:59.933Z,2.42
2019-03-13T22:51:30.675Z,2.46
2019-03-13T22:54:00.214Z,2.55
2019-03-13T22:56:29.709Z,2.57
2019-03-13T22:58:59.302Z,2.51
2019-03-13T23:01:28.987Z,2.52
2019-03-13T23:03:59.236Z,2.57
2019-03-13T23:06:28.718Z,2.64
2019-03-13T23:08:58.251Z,2.66
2019-03-13T23:11:27.737Z,2.75
2019-03-13T23:13:57.245Z,2.77
2019-03-13T23:16:27.353Z,2.75
2019-03-13T23:18:56.852Z,2.73
2019-03-13T23:21:26.416Z,2.71
2019-03-13T23:23:55.923Z,2.75
2019-03-13T23:26:25.418Z,2.76
2019-03-13T23:28:55.002Z,2.80
2019-03-13T23:31:24.529Z,2.82
2019-03-13T23:33:54.006Z,2.85
2019-03-13T23:36:23.549Z,2.90
2019-03-13T23:38:53.130Z,2.96
2019-03-13T23:41:23.705Z,2.96
2019-03-13T23:43:53.394Z,3.09
2019-03-13T23:46:23.040Z,3.08
2019-03-13T23:48:52.809Z,3.07
2019-03-13T23:51:22.686Z,3.00
2019-03-13T23:53:52.231Z,3.00
2019-03-13T23:56:21.930Z,3.02
2019-03-13T23:58:51.409Z,2.99
